sensor_id;sensor_type;location;lat;lon;timestamp;P1;durP1;ratioP1;P2;durP2;ratioP2
73437;SDS011;61657;56.534;21.020;2022-07-23T00:01:39;26.02;;;16.10;;
73437;SDS011;61657;56.534;21.020;2022-07-23T00:04:07;26.20;;;17.23;;
73437;SDS011;61657;56.534;21.020;2022-07-23T00:06:35;27.58;;;16.80;;
73437;SDS011;61657;56.534;21.020;2022-07-23T00:09:02;24.45;;;16.20;;
73437;SDS011;61657;56.534;21.020;2022-07-23T00:11:30;25.80;;;15.47;;
73437;SDS011;61657;56.534;21.020;2022-07-23T00:13:57;30.75;;;15.45;;
73437;SDS011;61657;56.534;21.020;2022-07-23T00:16:24;21.67;;;11.88;;
73437;SDS011;61657;56.534;21.020;2022-07-23T00:18:52;18.08;;;8.82;;
73437;SDS011;61657;56.534;21.020;2022-07-23T00:21:19;15.82;;;8.20;;
73437;SDS011;61657;56.534;21.020;2022-07-23T00:23:46;14.20;;;7.50;;
73437;SDS011;61657;56.534;21.020;2022-07-23T00:26:13;15.02;;;7.10;;
73437;SDS011;61657;56.534;21.020;2022-07-23T00:28:40;14.00;;;7.07;;
73437;SDS011;61657;56.534;21.020;2022-07-23T00:31:07;11.15;;;7.05;;
73437;SDS011;61657;56.534;21.020;2022-07-23T00:33:34;12.40;;;6.28;;
73437;SDS011;61657;56.534;21.020;2022-07-23T00:36:01;10.80;;;6.60;;
73437;SDS011;61657;56.534;21.020;2022-07-23T00:38:29;11.05;;;5.95;;
73437;SDS011;61657;56.534;21.020;2022-07-23T00:40:56;11.60;;;6.45;;
73437;SDS011;61657;56.534;21.020;2022-07-23T00:43:23;12.70;;;6.10;;
73437;SDS011;61657;56.534;21.020;2022-07-23T00:45:51;9.45;;;5.60;;
73437;SDS011;61657;56.534;21.020;2022-07-23T00:48:18;11.30;;;5.80;;
73437;SDS011;61657;56.534;21.020;2022-07-23T00:50:46;9.73;;;5.70;;
73437;SDS011;61657;56.534;21.020;2022-07-23T00:53:13;10.82;;;6.40;;
73437;SDS011;61657;56.534;21.020;2022-07-23T00:55:42;11.77;;;6.22;;
73437;SDS011;61657;56.534;21.020;2022-07-23T00:58:09;12.57;;;6.13;;
73437;SDS011;61657;56.534;21.020;2022-07-23T01:00:37;11.23;;;5.87;;
73437;SDS011;61657;56.534;21.020;2022-07-23T01:03:05;11.45;;;6.30;;
73437;SDS011;61657;56.534;21.020;2022-07-23T01:05:32;10.55;;;5.43;;
73437;SDS011;61657;56.534;21.020;2022-07-23T01:07:59;12.13;;;5.82;;
73437;SDS011;61657;56.534;21.020;2022-07-23T01:10:27;11.35;;;6.15;;
73437;SDS011;61657;56.534;21.020;2022-07-23T01:13:02;12.43;;;5.07;;
73437;SDS011;61657;56.534;21.020;2022-07-23T01:15:32;12.00;;;5.05;;
73437;SDS011;61657;56.534;21.020;2022-07-23T01:18:01;10.98;;;4.60;;
73437;SDS011;61657;56.534;21.020;2022-07-23T01:20:29;8.27;;;4.60;;
73437;SDS011;61657;56.534;21.020;2022-07-23T01:22:56;8.32;;;3.42;;
73437;SDS011;61657;56.534;21.020;2022-07-23T01:25:24;12.80;;;4.40;;
73437;SDS011;61657;56.534;21.020;2022-07-23T01:27:52;7.93;;;4.28;;
73437;SDS011;61657;56.534;21.020;2022-07-23T01:30:20;8.25;;;4.18;;
73437;SDS011;61657;56.534;21.020;2022-07-23T01:32:48;11.68;;;4.68;;
73437;SDS011;61657;56.534;21.020;2022-07-23T01:35:15;9.68;;;3.92;;
73437;SDS011;61657;56.534;21.020;2022-07-23T01:37:42;11.70;;;4.30;;
73437;SDS011;61657;56.534;21.020;2022-07-23T01:40:09;11.77;;;4.55;;
73437;SDS011;61657;56.534;21.020;2022-07-23T01:42:36;13.40;;;5.13;;
73437;SDS011;61657;56.534;21.020;2022-07-23T01:45:04;12.40;;;4.38;;
73437;SDS011;61657;56.534;21.020;2022-07-23T01:47:32;17.25;;;4.60;;
73437;SDS011;61657;56.534;21.020;2022-07-23T01:49:59;19.90;;;4.60;;
73437;SDS011;61657;56.534;21.020;2022-07-23T01:52:26;10.57;;;4.78;;
73437;SDS011;61657;56.534;21.020;2022-07-23T01:54:54;12.23;;;4.28;;
73437;SDS011;61657;56.534;21.020;2022-07-23T01:57:21;15.63;;;5.20;;
73437;SDS011;61657;56.534;21.020;2022-07-23T01:59:48;10.18;;;3.67;;
73437;SDS011;61657;56.534;21.020;2022-07-23T02:02:15;10.37;;;4.37;;
73437;SDS011;61657;56.534;21.020;2022-07-23T02:04:42;12.30;;;4.50;;
73437;SDS011;61657;56.534;21.020;2022-07-23T02:07:10;11.98;;;4.88;;
73437;SDS011;61657;56.534;21.020;2022-07-23T02:09:37;11.98;;;4.43;;
73437;SDS011;61657;56.534;21.020;2022-07-23T02:12:04;13.45;;;4.43;;
73437;SDS011;61657;56.534;21.020;2022-07-23T02:14:31;9.53;;;4.03;;
73437;SDS011;61657;56.534;21.020;2022-07-23T02:16:58;11.38;;;4.53;;
73437;SDS011;61657;56.534;21.020;2022-07-23T02:19:25;10.40;;;4.45;;
73437;SDS011;61657;56.534;21.020;2022-07-23T02:21:53;11.35;;;3.90;;
73437;SDS011;61657;56.534;21.020;2022-07-23T02:24:21;10.10;;;3.83;;
73437;SDS011;61657;56.534;21.020;2022-07-23T02:26:48;14.07;;;4.80;;
73437;SDS011;61657;56.534;21.020;2022-07-23T02:29:15;10.95;;;4.18;;
73437;SDS011;61657;56.534;21.020;2022-07-23T02:31:42;11.65;;;4.10;;
73437;SDS011;61657;56.534;21.020;2022-07-23T02:34:10;10.93;;;5.05;;
73437;SDS011;61657;56.534;21.020;2022-07-23T02:36:38;10.73;;;4.55;;
73437;SDS011;61657;56.534;21.020;2022-07-23T02:39:06;14.90;;;4.57;;
73437;SDS011;61657;56.534;21.020;2022-07-23T02:41:33;12.57;;;4.55;;
73437;SDS011;61657;56.534;21.020;2022-07-23T02:44:00;11.43;;;4.65;;
73437;SDS011;61657;56.534;21.020;2022-07-23T02:46:27;13.50;;;4.50;;
73437;SDS011;61657;56.534;21.020;2022-07-23T02:48:54;14.93;;;4.28;;
73437;SDS011;61657;56.534;21.020;2022-07-23T02:51:22;15.37;;;4.40;;
73437;SDS011;61657;56.534;21.020;2022-07-23T02:53:49;12.18;;;4.18;;
73437;SDS011;61657;56.534;21.020;2022-07-23T02:56:16;14.00;;;4.60;;
73437;SDS011;61657;56.534;21.020;2022-07-23T02:58:43;11.65;;;4.22;;
73437;SDS011;61657;56.534;21.020;2022-07-23T03:01:10;11.05;;;3.65;;
73437;SDS011;61657;56.534;21.020;2022-07-23T03:03:37;14.33;;;4.33;;
73437;SDS011;61657;56.534;21.020;2022-07-23T03:06:04;15.55;;;4.35;;
73437;SDS011;61657;56.534;21.020;2022-07-23T03:08:32;12.20;;;4.30;;
73437;SDS011;61657;56.534;21.020;2022-07-23T03:10:59;12.68;;;4.55;;
73437;SDS011;61657;56.534;21.020;2022-07-23T03:13:26;12.07;;;4.53;;
73437;SDS011;61657;56.534;21.020;2022-07-23T03:15:54;10.03;;;3.77;;
73437;SDS011;61657;56.534;21.020;2022-07-23T03:18:21;11.27;;;3.63;;
73437;SDS011;61657;56.534;21.020;2022-07-23T03:20:48;10.98;;;3.70;;
73437;SDS011;61657;56.534;21.020;2022-07-23T03:23:15;12.38;;;3.38;;
73437;SDS011;61657;56.534;21.020;2022-07-23T03:25:42;15.25;;;3.63;;
73437;SDS011;61657;56.534;21.020;2022-07-23T03:28:10;11.97;;;3.33;;
73437;SDS011;61657;56.534;21.020;2022-07-23T03:30:37;11.13;;;3.67;;
73437;SDS011;61657;56.534;21.020;2022-07-23T03:33:05;10.02;;;3.88;;
73437;SDS011;61657;56.534;21.020;2022-07-23T03:35:32;11.68;;;2.97;;
73437;SDS011;61657;56.534;21.020;2022-07-23T03:38:00;13.82;;;3.78;;
73437;SDS011;61657;56.534;21.020;2022-07-23T03:40:27;12.50;;;3.57;;
73437;SDS011;61657;56.534;21.020;2022-07-23T03:42:56;9.88;;;3.97;;
73437;SDS011;61657;56.534;21.020;2022-07-23T03:45:23;9.05;;;3.10;;
73437;SDS011;61657;56.534;21.020;2022-07-23T03:47:50;9.60;;;3.40;;
73437;SDS011;61657;56.534;21.020;2022-07-23T03:50:17;11.13;;;3.38;;
73437;SDS011;61657;56.534;21.020;2022-07-23T03:52:44;11.03;;;3.47;;
73437;SDS011;61657;56.534;21.020;2022-07-23T03:55:11;9.88;;;3.25;;
73437;SDS011;61657;56.534;21.020;2022-07-23T03:57:39;11.45;;;3.85;;
73437;SDS011;61657;56.534;21.020;2022-07-23T04:00:07;13.27;;;3.70;;
73437;SDS011;61657;56.534;21.020;2022-07-23T04:02:37;9.82;;;2.90;;
73437;SDS011;61657;56.534;21.020;2022-07-23T04:05:05;9.40;;;3.67;;
73437;SDS011;61657;56.534;21.020;2022-07-23T04:07:33;11.20;;;3.50;;
73437;SDS011;61657;56.534;21.020;2022-07-23T04:10:00;9.10;;;3.90;;
73437;SDS011;61657;56.534;21.020;2022-07-23T04:12:27;11.48;;;3.17;;
73437;SDS011;61657;56.534;21.020;2022-07-23T04:14:54;10.95;;;3.50;;
73437;SDS011;61657;56.534;21.020;2022-07-23T04:17:22;10.30;;;4.00;;
73437;SDS011;61657;56.534;21.020;2022-07-23T04:19:49;9.55;;;3.10;;
73437;SDS011;61657;56.534;21.020;2022-07-23T04:22:16;11.88;;;3.60;;
73437;SDS011;61657;56.534;21.020;2022-07-23T04:24:44;10.90;;;3.03;;
73437;SDS011;61657;56.534;21.020;2022-07-23T04:27:11;10.15;;;3.60;;
73437;SDS011;61657;56.534;21.020;2022-07-23T04:29:38;14.53;;;3.63;;
73437;SDS011;61657;56.534;21.020;2022-07-23T04:32:06;9.88;;;3.00;;
73437;SDS011;61657;56.534;21.020;2022-07-23T04:34:33;9.88;;;3.10;;
73437;SDS011;61657;56.534;21.020;2022-07-23T04:37:00;12.43;;;3.72;;
73437;SDS011;61657;56.534;21.020;2022-07-23T04:39:30;10.63;;;3.30;;
73437;SDS011;61657;56.534;21.020;2022-07-23T04:41:58;11.33;;;3.30;;
73437;SDS011;61657;56.534;21.020;2022-07-23T04:44:25;10.73;;;3.17;;
73437;SDS011;61657;56.534;21.020;2022-07-23T04:46:52;7.90;;;2.63;;
73437;SDS011;61657;56.534;21.020;2022-07-23T04:49:21;10.10;;;3.45;;
73437;SDS011;61657;56.534;21.020;2022-07-23T04:51:48;8.20;;;3.35;;
73437;SDS011;61657;56.534;21.020;2022-07-23T04:54:15;8.47;;;2.60;;
73437;SDS011;61657;56.534;21.020;2022-07-23T04:56:44;9.63;;;2.85;;
73437;SDS011;61657;56.534;21.020;2022-07-23T04:59:11;9.98;;;3.05;;
73437;SDS011;61657;56.534;21.020;2022-07-23T05:01:38;7.93;;;2.55;;
73437;SDS011;61657;56.534;21.020;2022-07-23T05:04:05;11.25;;;3.22;;
73437;SDS011;61657;56.534;21.020;2022-07-23T05:06:32;9.03;;;3.03;;
73437;SDS011;61657;56.534;21.020;2022-07-23T05:08:59;11.02;;;3.00;;
73437;SDS011;61657;56.534;21.020;2022-07-23T05:11:27;8.85;;;3.15;;
73437;SDS011;61657;56.534;21.020;2022-07-23T05:13:54;10.25;;;3.00;;
73437;SDS011;61657;56.534;21.020;2022-07-23T05:16:22;12.65;;;2.90;;
73437;SDS011;61657;56.534;21.020;2022-07-23T05:18:49;11.73;;;3.00;;
73437;SDS011;61657;56.534;21.020;2022-07-23T05:21:16;10.40;;;3.10;;
73437;SDS011;61657;56.534;21.020;2022-07-23T05:23:44;11.95;;;3.47;;
73437;SDS011;61657;56.534;21.020;2022-07-23T05:26:12;12.13;;;2.97;;
73437;SDS011;61657;56.534;21.020;2022-07-23T05:28:42;9.98;;;3.78;;
73437;SDS011;61657;56.534;21.020;2022-07-23T05:31:15;8.40;;;2.47;;
73437;SDS011;61657;56.534;21.020;2022-07-23T05:33:42;9.93;;;2.53;;
73437;SDS011;61657;56.534;21.020;2022-07-23T05:36:09;10.63;;;3.08;;
73437;SDS011;61657;56.534;21.020;2022-07-23T05:38:37;8.35;;;2.90;;
73437;SDS011;61657;56.534;21.020;2022-07-23T05:41:04;8.40;;;3.00;;
73437;SDS011;61657;56.534;21.020;2022-07-23T05:43:31;9.20;;;2.57;;
73437;SDS011;61657;56.534;21.020;2022-07-23T05:45:58;10.00;;;2.75;;
73437;SDS011;61657;56.534;21.020;2022-07-23T05:48:27;11.40;;;3.30;;
73437;SDS011;61657;56.534;21.020;2022-07-23T05:50:54;10.65;;;3.40;;
73437;SDS011;61657;56.534;21.020;2022-07-23T05:53:21;11.73;;;3.50;;
73437;SDS011;61657;56.534;21.020;2022-07-23T05:55:48;9.63;;;3.10;;
73437;SDS011;61657;56.534;21.020;2022-07-23T05:58:15;10.65;;;3.33;;
73437;SDS011;61657;56.534;21.020;2022-07-23T06:00:42;10.65;;;2.28;;
73437;SDS011;61657;56.534;21.020;2022-07-23T06:03:09;10.05;;;2.90;;
73437;SDS011;61657;56.534;21.020;2022-07-23T06:05:36;8.20;;;2.95;;
73437;SDS011;61657;56.534;21.020;2022-07-23T06:08:03;6.27;;;2.67;;
73437;SDS011;61657;56.534;21.020;2022-07-23T06:10:30;6.93;;;2.45;;
73437;SDS011;61657;56.534;21.020;2022-07-23T06:12:57;9.75;;;2.97;;
73437;SDS011;61657;56.534;21.020;2022-07-23T06:15:28;8.32;;;2.63;;
73437;SDS011;61657;56.534;21.020;2022-07-23T06:17:56;6.93;;;2.47;;
73437;SDS011;61657;56.534;21.020;2022-07-23T06:20:23;9.57;;;2.67;;
73437;SDS011;61657;56.534;21.020;2022-07-23T06:22:51;8.82;;;2.30;;
73437;SDS011;61657;56.534;21.020;2022-07-23T06:25:19;9.43;;;2.85;;
73437;SDS011;61657;56.534;21.020;2022-07-23T06:27:46;9.00;;;2.72;;
73437;SDS011;61657;56.534;21.020;2022-07-23T06:30:14;6.65;;;2.10;;
73437;SDS011;61657;56.534;21.020;2022-07-23T06:32:45;8.57;;;2.10;;
73437;SDS011;61657;56.534;21.020;2022-07-23T06:35:13;8.27;;;2.60;;
73437;SDS011;61657;56.534;21.020;2022-07-23T06:37:41;8.68;;;2.58;;
73437;SDS011;61657;56.534;21.020;2022-07-23T06:40:08;6.72;;;2.60;;
73437;SDS011;61657;56.534;21.020;2022-07-23T06:42:36;6.30;;;2.42;;
73437;SDS011;61657;56.534;21.020;2022-07-23T06:45:11;7.50;;;2.10;;
73437;SDS011;61657;56.534;21.020;2022-07-23T06:47:40;9.35;;;2.30;;
73437;SDS011;61657;56.534;21.020;2022-07-23T06:50:08;9.13;;;2.50;;
73437;SDS011;61657;56.534;21.020;2022-07-23T06:52:35;6.32;;;2.38;;
73437;SDS011;61657;56.534;21.020;2022-07-23T06:55:08;6.60;;;2.63;;
73437;SDS011;61657;56.534;21.020;2022-07-23T06:57:35;9.63;;;3.30;;
73437;SDS011;61657;56.534;21.020;2022-07-23T07:00:03;7.45;;;3.00;;
73437;SDS011;61657;56.534;21.020;2022-07-23T07:02:30;8.20;;;2.30;;
73437;SDS011;61657;56.534;21.020;2022-07-23T07:04:58;8.95;;;2.22;;
73437;SDS011;61657;56.534;21.020;2022-07-23T07:07:31;7.97;;;2.80;;
73437;SDS011;61657;56.534;21.020;2022-07-23T07:09:58;8.23;;;2.30;;
73437;SDS011;61657;56.534;21.020;2022-07-23T07:12:25;8.40;;;2.17;;
73437;SDS011;61657;56.534;21.020;2022-07-23T07:14:52;8.35;;;2.22;;
73437;SDS011;61657;56.534;21.020;2022-07-23T07:17:20;7.65;;;2.15;;
73437;SDS011;61657;56.534;21.020;2022-07-23T07:19:47;8.88;;;2.00;;
73437;SDS011;61657;56.534;21.020;2022-07-23T07:22:14;11.27;;;2.20;;
73437;SDS011;61657;56.534;21.020;2022-07-23T07:24:41;10.32;;;2.05;;
73437;SDS011;61657;56.534;21.020;2022-07-23T07:27:08;8.50;;;2.33;;
73437;SDS011;61657;56.534;21.020;2022-07-23T07:29:35;8.15;;;2.42;;
73437;SDS011;61657;56.534;21.020;2022-07-23T07:32:02;8.55;;;2.67;;
73437;SDS011;61657;56.534;21.020;2022-07-23T07:34:29;7.30;;;2.07;;
73437;SDS011;61657;56.534;21.020;2022-07-23T07:36:56;9.32;;;2.30;;
73437;SDS011;61657;56.534;21.020;2022-07-23T07:39:23;9.80;;;2.05;;
73437;SDS011;61657;56.534;21.020;2022-07-23T07:41:50;6.97;;;2.30;;
73437;SDS011;61657;56.534;21.020;2022-07-23T07:44:17;9.80;;;2.25;;
73437;SDS011;61657;56.534;21.020;2022-07-23T07:46:44;10.00;;;2.20;;
73437;SDS011;61657;56.534;21.020;2022-07-23T07:49:11;10.00;;;2.33;;
73437;SDS011;61657;56.534;21.020;2022-07-23T07:51:41;6.45;;;2.25;;
73437;SDS011;61657;56.534;21.020;2022-07-23T07:54:11;12.10;;;2.20;;
73437;SDS011;61657;56.534;21.020;2022-07-23T07:56:38;10.30;;;2.20;;
73437;SDS011;61657;56.534;21.020;2022-07-23T07:59:06;9.50;;;2.40;;
73437;SDS011;61657;56.534;21.020;2022-07-23T08:01:33;5.72;;;2.00;;
73437;SDS011;61657;56.534;21.020;2022-07-23T08:04:00;7.55;;;2.08;;
73437;SDS011;61657;56.534;21.020;2022-07-23T08:06:28;10.38;;;2.60;;
73437;SDS011;61657;56.534;21.020;2022-07-23T08:08:55;8.65;;;2.60;;
73437;SDS011;61657;56.534;21.020;2022-07-23T08:11:22;6.83;;;2.03;;
73437;SDS011;61657;56.534;21.020;2022-07-23T08:13:52;8.75;;;1.95;;
73437;SDS011;61657;56.534;21.020;2022-07-23T08:16:19;6.50;;;1.92;;
73437;SDS011;61657;56.534;21.020;2022-07-23T08:18:46;7.97;;;2.70;;
73437;SDS011;61657;56.534;21.020;2022-07-23T08:21:13;7.60;;;2.53;;
73437;SDS011;61657;56.534;21.020;2022-07-23T08:23:41;7.67;;;1.97;;
73437;SDS011;61657;56.534;21.020;2022-07-23T08:26:08;10.90;;;2.17;;
73437;SDS011;61657;56.534;21.020;2022-07-23T08:28:35;8.98;;;2.22;;
73437;SDS011;61657;56.534;21.020;2022-07-23T08:31:02;8.63;;;2.13;;
73437;SDS011;61657;56.534;21.020;2022-07-23T08:33:32;17.95;;;10.55;;
73437;SDS011;61657;56.534;21.020;2022-07-23T08:36:01;12.57;;;6.60;;
73437;SDS011;61657;56.534;21.020;2022-07-23T08:38:31;8.13;;;2.65;;
73437;SDS011;61657;56.534;21.020;2022-07-23T08:40:58;6.35;;;2.00;;
73437;SDS011;61657;56.534;21.020;2022-07-23T08:43:26;9.38;;;2.42;;
73437;SDS011;61657;56.534;21.020;2022-07-23T08:45:56;6.95;;;2.10;;
73437;SDS011;61657;56.534;21.020;2022-07-23T08:48:35;8.00;;;1.90;;
73437;SDS011;61657;56.534;21.020;2022-07-23T08:51:05;8.60;;;2.33;;
73437;SDS011;61657;56.534;21.020;2022-07-23T08:53:33;7.20;;;2.17;;
73437;SDS011;61657;56.534;21.020;2022-07-23T08:56:07;7.10;;;2.53;;
73437;SDS011;61657;56.534;21.020;2022-07-23T08:58:35;6.97;;;2.38;;
73437;SDS011;61657;56.534;21.020;2022-07-23T09:01:03;10.13;;;2.43;;
73437;SDS011;61657;56.534;21.020;2022-07-23T09:03:31;9.05;;;2.08;;
73437;SDS011;61657;56.534;21.020;2022-07-23T09:06:00;8.50;;;2.85;;
73437;SDS011;61657;56.534;21.020;2022-07-23T09:08:37;5.57;;;1.92;;
73437;SDS011;61657;56.534;21.020;2022-07-23T09:11:06;7.90;;;2.38;;
73437;SDS011;61657;56.534;21.020;2022-07-23T09:13:36;7.57;;;2.20;;
73437;SDS011;61657;56.534;21.020;2022-07-23T09:16:12;8.32;;;2.20;;
73437;SDS011;61657;56.534;21.020;2022-07-23T09:23:58;9.82;;;2.25;;
73437;SDS011;61657;56.534;21.020;2022-07-23T09:26:39;10.23;;;2.53;;
73437;SDS011;61657;56.534;21.020;2022-07-23T09:29:17;6.32;;;2.22;;
73437;SDS011;61657;56.534;21.020;2022-07-23T09:34:20;9.65;;;2.33;;
73437;SDS011;61657;56.534;21.020;2022-07-23T09:36:52;7.72;;;2.38;;
73437;SDS011;61657;56.534;21.020;2022-07-23T09:39:27;6.93;;;2.20;;
73437;SDS011;61657;56.534;21.020;2022-07-23T09:41:56;7.60;;;2.10;;
73437;SDS011;61657;56.534;21.020;2022-07-23T09:44:24;10.63;;;2.53;;
73437;SDS011;61657;56.534;21.020;2022-07-23T09:46:57;8.38;;;2.20;;
73437;SDS011;61657;56.534;21.020;2022-07-23T09:49:25;8.38;;;2.35;;
73437;SDS011;61657;56.534;21.020;2022-07-23T09:51:54;7.07;;;2.10;;
73437;SDS011;61657;56.534;21.020;2022-07-23T09:54:27;6.95;;;2.30;;
73437;SDS011;61657;56.534;21.020;2022-07-23T09:57:09;6.72;;;2.55;;
73437;SDS011;61657;56.534;21.020;2022-07-23T09:59:42;8.48;;;2.42;;
73437;SDS011;61657;56.534;21.020;2022-07-23T10:02:12;7.10;;;2.35;;
73437;SDS011;61657;56.534;21.020;2022-07-23T10:04:41;6.90;;;2.40;;
73437;SDS011;61657;56.534;21.020;2022-07-23T10:07:10;10.00;;;2.70;;
73437;SDS011;61657;56.534;21.020;2022-07-23T10:09:38;9.30;;;2.40;;
73437;SDS011;61657;56.534;21.020;2022-07-23T10:12:10;8.07;;;2.50;;
73437;SDS011;61657;56.534;21.020;2022-07-23T10:14:57;9.20;;;2.40;;
73437;SDS011;61657;56.534;21.020;2022-07-23T10:17:25;6.43;;;2.60;;
73437;SDS011;61657;56.534;21.020;2022-07-23T10:19:54;7.80;;;2.38;;
73437;SDS011;61657;56.534;21.020;2022-07-23T10:22:22;7.10;;;2.45;;
73437;SDS011;61657;56.534;21.020;2022-07-23T10:33:15;7.38;;;2.28;;
73437;SDS011;61657;56.534;21.020;2022-07-23T10:38:25;6.45;;;2.42;;
73437;SDS011;61657;56.534;21.020;2022-07-23T10:41:04;7.03;;;2.63;;
73437;SDS011;61657;56.534;21.020;2022-07-23T10:43:31;6.63;;;2.30;;
73437;SDS011;61657;56.534;21.020;2022-07-23T10:49:27;8.77;;;2.78;;
73437;SDS011;61657;56.534;21.020;2022-07-23T10:52:32;7.35;;;2.35;;
73437;SDS011;61657;56.534;21.020;2022-07-23T10:57:26;6.13;;;1.77;;
73437;SDS011;61657;56.534;21.020;2022-07-23T11:02:40;6.50;;;1.90;;
73437;SDS011;61657;56.534;21.020;2022-07-23T11:05:09;8.20;;;2.17;;
73437;SDS011;61657;56.534;21.020;2022-07-23T11:10:41;7.30;;;2.13;;
73437;SDS011;61657;56.534;21.020;2022-07-23T11:34:39;7.40;;;2.20;;
73437;SDS011;61657;56.534;21.020;2022-07-23T11:37:08;6.00;;;2.30;;
73437;SDS011;61657;56.534;21.020;2022-07-23T11:39:38;7.47;;;4.10;;
73437;SDS011;61657;56.534;21.020;2022-07-23T11:42:06;27.52;;;18.13;;
73437;SDS011;61657;56.534;21.020;2022-07-23T11:44:35;14.77;;;6.10;;
73437;SDS011;61657;56.534;21.020;2022-07-23T11:47:04;7.40;;;2.72;;
73437;SDS011;61657;56.534;21.020;2022-07-23T11:49:32;10.93;;;3.80;;
73437;SDS011;61657;56.534;21.020;2022-07-23T11:54:36;6.47;;;2.50;;
73437;SDS011;61657;56.534;21.020;2022-07-23T11:57:13;13.05;;;7.57;;
73437;SDS011;61657;56.534;21.020;2022-07-23T11:59:41;6.32;;;2.85;;
73437;SDS011;61657;56.534;21.020;2022-07-23T12:02:10;9.97;;;4.73;;
73437;SDS011;61657;56.534;21.020;2022-07-23T12:04:44;8.50;;;3.38;;
73437;SDS011;61657;56.534;21.020;2022-07-23T12:10:15;6.45;;;2.10;;
73437;SDS011;61657;56.534;21.020;2022-07-23T12:12:48;12.30;;;9.32;;
73437;SDS011;61657;56.534;21.020;2022-07-23T12:15:17;8.50;;;2.97;;
73437;SDS011;61657;56.534;21.020;2022-07-23T12:17:48;7.18;;;2.30;;
73437;SDS011;61657;56.534;21.020;2022-07-23T12:20:34;8.70;;;2.35;;
73437;SDS011;61657;56.534;21.020;2022-07-23T12:23:13;7.90;;;2.38;;
73437;SDS011;61657;56.534;21.020;2022-07-23T12:25:47;7.10;;;2.22;;
73437;SDS011;61657;56.534;21.020;2022-07-23T12:28:26;7.43;;;3.33;;
73437;SDS011;61657;56.534;21.020;2022-07-23T12:30:55;10.73;;;2.50;;
73437;SDS011;61657;56.534;21.020;2022-07-23T12:33:28;11.07;;;5.53;;
73437;SDS011;61657;56.534;21.020;2022-07-23T12:36:01;16.08;;;12.38;;
73437;SDS011;61657;56.534;21.020;2022-07-23T12:38:38;8.00;;;3.05;;
73437;SDS011;61657;56.534;21.020;2022-07-23T12:41:10;9.43;;;2.63;;
73437;SDS011;61657;56.534;21.020;2022-07-23T12:43:38;8.57;;;3.47;;
73437;SDS011;61657;56.534;21.020;2022-07-23T12:46:08;9.52;;;2.92;;
73437;SDS011;61657;56.534;21.020;2022-07-23T12:51:25;10.15;;;3.67;;
73437;SDS011;61657;56.534;21.020;2022-07-23T12:54:05;11.73;;;3.87;;
73437;SDS011;61657;56.534;21.020;2022-07-23T12:56:37;9.05;;;3.97;;
73437;SDS011;61657;56.534;21.020;2022-07-23T12:59:07;8.52;;;3.22;;
73437;SDS011;61657;56.534;21.020;2022-07-23T13:01:40;10.70;;;3.72;;
73437;SDS011;61657;56.534;21.020;2022-07-23T13:06:57;19.97;;;12.83;;
73437;SDS011;61657;56.534;21.020;2022-07-23T13:09:32;15.63;;;9.40;;
73437;SDS011;61657;56.534;21.020;2022-07-23T13:12:07;12.38;;;4.53;;
73437;SDS011;61657;56.534;21.020;2022-07-23T13:14:36;11.02;;;5.03;;
73437;SDS011;61657;56.534;21.020;2022-07-23T13:17:04;13.57;;;5.57;;
73437;SDS011;61657;56.534;21.020;2022-07-23T13:19:32;29.80;;;14.43;;
73437;SDS011;61657;56.534;21.020;2022-07-23T13:22:00;18.05;;;9.30;;
73437;SDS011;61657;56.534;21.020;2022-07-23T13:24:34;16.13;;;7.70;;
73437;SDS011;61657;56.534;21.020;2022-07-23T13:27:07;8.10;;;4.63;;
73437;SDS011;61657;56.534;21.020;2022-07-23T13:29:38;7.72;;;4.10;;
73437;SDS011;61657;56.534;21.020;2022-07-23T13:32:05;8.57;;;3.90;;
73437;SDS011;61657;56.534;21.020;2022-07-23T13:34:38;11.68;;;4.15;;
73437;SDS011;61657;56.534;21.020;2022-07-23T13:37:07;8.80;;;4.32;;
73437;SDS011;61657;56.534;21.020;2022-07-23T13:39:34;7.30;;;3.88;;
73437;SDS011;61657;56.534;21.020;2022-07-23T13:42:04;11.18;;;5.90;;
73437;SDS011;61657;56.534;21.020;2022-07-23T13:44:32;13.83;;;6.00;;
73437;SDS011;61657;56.534;21.020;2022-07-23T13:47:00;9.57;;;4.65;;
73437;SDS011;61657;56.534;21.020;2022-07-23T13:49:27;12.93;;;5.78;;
73437;SDS011;61657;56.534;21.020;2022-07-23T13:51:54;11.50;;;5.43;;
73437;SDS011;61657;56.534;21.020;2022-07-23T13:54:22;10.38;;;4.10;;
73437;SDS011;61657;56.534;21.020;2022-07-23T13:56:49;10.43;;;4.37;;
73437;SDS011;61657;56.534;21.020;2022-07-23T13:59:16;7.20;;;3.47;;
73437;SDS011;61657;56.534;21.020;2022-07-23T14:01:43;11.32;;;4.82;;
73437;SDS011;61657;56.534;21.020;2022-07-23T14:04:31;9.95;;;4.07;;
73437;SDS011;61657;56.534;21.020;2022-07-23T14:06:59;11.52;;;4.93;;
73437;SDS011;61657;56.534;21.020;2022-07-23T14:09:27;11.37;;;3.80;;
73437;SDS011;61657;56.534;21.020;2022-07-23T14:11:56;12.35;;;4.47;;
73437;SDS011;61657;56.534;21.020;2022-07-23T14:14:24;12.30;;;5.95;;
73437;SDS011;61657;56.534;21.020;2022-07-23T14:16:51;7.85;;;3.83;;
73437;SDS011;61657;56.534;21.020;2022-07-23T14:19:18;13.18;;;5.45;;
73437;SDS011;61657;56.534;21.020;2022-07-23T14:21:45;9.73;;;5.70;;
73437;SDS011;61657;56.534;21.020;2022-07-23T14:24:15;10.00;;;5.22;;
73437;SDS011;61657;56.534;21.020;2022-07-23T14:26:43;9.77;;;4.60;;
73437;SDS011;61657;56.534;21.020;2022-07-23T14:29:11;8.43;;;4.82;;
73437;SDS011;61657;56.534;21.020;2022-07-23T14:31:38;11.50;;;5.97;;
73437;SDS011;61657;56.534;21.020;2022-07-23T14:34:06;11.73;;;6.70;;
73437;SDS011;61657;56.534;21.020;2022-07-23T14:36:33;12.68;;;4.82;;
73437;SDS011;61657;56.534;21.020;2022-07-23T14:39:00;9.98;;;3.92;;
73437;SDS011;61657;56.534;21.020;2022-07-23T14:41:28;8.85;;;3.88;;
73437;SDS011;61657;56.534;21.020;2022-07-23T14:43:55;9.52;;;4.53;;
73437;SDS011;61657;56.534;21.020;2022-07-23T14:46:22;7.70;;;4.90;;
73437;SDS011;61657;56.534;21.020;2022-07-23T14:48:49;8.07;;;4.35;;
73437;SDS011;61657;56.534;21.020;2022-07-23T14:51:17;8.43;;;4.03;;
73437;SDS011;61657;56.534;21.020;2022-07-23T14:53:44;12.00;;;3.95;;
73437;SDS011;61657;56.534;21.020;2022-07-23T14:56:11;10.18;;;3.55;;
73437;SDS011;61657;56.534;21.020;2022-07-23T14:58:40;11.50;;;4.27;;
73437;SDS011;61657;56.534;21.020;2022-07-23T15:01:10;9.75;;;3.88;;
73437;SDS011;61657;56.534;21.020;2022-07-23T15:03:37;12.32;;;5.13;;
73437;SDS011;61657;56.534;21.020;2022-07-23T15:06:08;15.30;;;7.43;;
73437;SDS011;61657;56.534;21.020;2022-07-23T15:08:35;10.93;;;5.43;;
73437;SDS011;61657;56.534;21.020;2022-07-23T15:11:02;8.80;;;3.97;;
73437;SDS011;61657;56.534;21.020;2022-07-23T15:13:30;10.50;;;3.65;;
73437;SDS011;61657;56.534;21.020;2022-07-23T15:15:57;14.60;;;7.88;;
73437;SDS011;61657;56.534;21.020;2022-07-23T15:18:28;7.93;;;3.63;;
73437;SDS011;61657;56.534;21.020;2022-07-23T15:20:55;8.90;;;3.90;;
73437;SDS011;61657;56.534;21.020;2022-07-23T15:23:23;9.53;;;4.23;;
73437;SDS011;61657;56.534;21.020;2022-07-23T15:25:51;8.52;;;4.00;;
73437;SDS011;61657;56.534;21.020;2022-07-23T15:28:18;9.40;;;3.83;;
73437;SDS011;61657;56.534;21.020;2022-07-23T15:30:47;8.07;;;3.90;;
73437;SDS011;61657;56.534;21.020;2022-07-23T15:33:19;8.45;;;4.40;;
73437;SDS011;61657;56.534;21.020;2022-07-23T15:35:47;9.87;;;4.07;;
73437;SDS011;61657;56.534;21.020;2022-07-23T15:38:15;10.23;;;3.42;;
73437;SDS011;61657;56.534;21.020;2022-07-23T15:40:51;9.43;;;3.80;;